KRAC/RAC METAR and TAF weather

Enter ICAO airport designator
Station Type Date Time Source
KRAC METAR 2018/12/15 04:53 UTC NOAA

KRAC 150453Z AUTO 28003KT 5SM BR CLR M03/M04 A3022 RMK AO2 SLP241 T10281044


Station Type Date Time Source
KRAC Decoded METAR 2018/12/15 04:53 UTC NOAA

BATTEN INTERNATIONAL AIRPORT, WI, United States (KRAC) 42-46N 87-49W 203M
Dec 14, 2018 - 11:53 PM EST / 2018.12.15 0453 UTC
Wind: from the W (280 degrees) at 3 MPH (3 KT):0
Visibility: 5 mile(s):0
Sky conditions: clear
Weather: mist
Temperature: 27.0 F (-2.8 C)
Dew Point: 24.1 F (-4.4 C)
Relative Humidity: 88%
Pressure (altimeter): 30.22 in. Hg (1023 hPa)
ob: KRAC 150453Z AUTO 28003KT 5SM BR CLR M03/M04 A3022 RMK AO2 SLP241 T10281044
cycle: 5

Station Type Date Time Source
KRAC TAF UTC NOAA

Error!


Example: see airport list